Trollhattan, Suecia

1:59 PM CEST en Julio 23, 2014 (GMT +0200)
Sjuntorp (IIN5SJUN2) Alt 138 ft | 58.18 °N, 12.20 °E | Change Station

Current weather conditions updated 14 minutes ago

Clear
Despejado
86.9 ° F
Sensación térmica 86 ° F
N
7.6
Viento Variable Viento desde NE
Gusts 9.8 mph

Hoy se prevé una temperatura muy similar a la de ayer.

Hoy
Alta -- | Baja -- ° F
--% Posibilidad de precipitaciones
Ayer
Alta -- | Baja -- ° F
Precip. -- pul
4:43 AM 9:49 PM
Creciente menguante, 11% visible
Presión 30.27 pul
Visibilidad 6.2 Millas
Nubes
Índice de calor 86 ° F
Punto de rocío 58 ° F
Humedad 38%
Precipitaciones 0.00 pul
Espesor de la nieve No disponible.
UV No disponible.
Polen No disponible.
Calidad del aire No disponible.
Flu Activity No disponible.
METAR ESIB 231150Z AUTO 36008KT 9999NDV NCD 25/20 Q1025

More Conditions Fewer Conditions

Presión 30.27 pul
Visibilidad 6.2 Millas
Nubes
Índice de calor 86 ° F
Punto de rocío 58 ° F
Humedad 38%
Precipitaciones 0.00 pul
Espesor de la nieve No disponible.
UV No disponible.
Polen No disponible.
Calidad del aire No disponible.
Flu Activity No disponible.
METAR ESIB 231150Z AUTO 36008KT 9999NDV NCD 25/20 Q1025

More Conditions Fewer Conditions

10-Day Weather Forecast

Almanac

Astronomía

Jul. 23, 2014 Salida Puesta
Hora real 4:43 AM CEST 9:49 PM CEST
Crepúsculo civil 3:42 AM CEST 10:49 PM CEST
Crepúsculo náutico 1:49 AM CEST 12:44 AM CEST
Crepúsculo astronómico Sun does not rise Sun does not rise
Luna 1:57 AM CEST 6:57 PM CEST
Horas de luz 19h 07m
Horas de luz
17h 06m
Tomorrow will be 3m 54s shorter.
Creciente menguante, 11% of the Moon is Illuminated
Hoy
Creciente menguante
Jul 26
Nueva
Ago 3
Cuarto creciente
Ago 10
Luna llena
Ago 17
Cuarto menguante

Extremos de ayer

Máximos del país Bajas del país

Community

WunderPhotos

Upload Photos

1,736,561 ¡fotos cargadas!

Nearby

Calidad del aire

Not available.

Grosos de nieve

Not available.

Actividad de terremotos

Ciudad Distance Mag. Tiempo y dato
No hay informes recientes de la actividad sísmica.
Magnitud mínima muestra es 2,5.

Temperaturas de aguas costeras

Lugar Temperatura
Sin partes meteorológicos de las estaciones

Estaciones meteorológicas cercanas

Ubicación de la estación Temp. Índice de calor Punto de rocío Humedad Viento Precip. Alt Actualizado Tipo
Sjuntorp, Sjuntorp 86.9 ° F 86 ° F 58 ° F 38% NE  a  7.6 mph 0.00 pul / hr 138 ft 1:45 PM CEST Normal
Haggsjoryr, Uppharad 85.8 ° F 83 ° F 42 ° F 21% NNO  a  4.0 mph 0.00 pul / hr 260 ft 1:59 PM CEST Normal
Ljungskile., 45932 Ljungskile 84.6 ° F 84 ° F 58 ° F 40% ESE  a  1.0 mph 0.00 pul / hr 204 ft 1:55 PM CEST Normal
Nygård 82.4 ° F 83 ° F 60 ° F 46% NE  a  1.0 mph 0.00 pul / hr 144 ft 1:59 PM CEST Rapid Fire
UDDEVALLA, Herrestad 75.1 ° F 75 ° F 20 ° F 13% ESE  a  9.3 mph - / hr 551 ft 1:59 PM CEST Rapid Fire
Orslosa, Kallstorp, Lidkoping 84.8 ° F 90 ° F 70 ° F 62% Norte  a  0.0 mph 0.00 pul / hr 198 ft 1:55 PM CEST Normal

Show More Stations Show Fewer Stations